createdAt,value
2023-01-18T00:00:22.081Z,-0.5
2023-01-18T00:05:22.028Z,-0.5
2023-01-18T00:10:21.916Z,-0.5
2023-01-18T00:15:21.644Z,-0.5
2023-01-18T00:20:21.627Z,-0.5
2023-01-18T00:25:21.616Z,-0.5
2023-01-18T00:30:22.115Z,-0.6
2023-01-18T00:35:21.412Z,-0.6
2023-01-18T00:40:21.455Z,-0.6
2023-01-18T00:45:21.408Z,-0.6
2023-01-18T00:50:21.708Z,-0.7
2023-01-18T00:55:21.743Z,-0.7
2023-01-18T01:00:21.808Z,-0.7
2023-01-18T01:05:21.893Z,-0.7
2023-01-18T01:10:22.386Z,-0.8
2023-01-18T01:15:21.775Z,-0.8
2023-01-18T01:20:21.362Z,-0.8
2023-01-18T01:25:21.790Z,-0.8
2023-01-18T01:30:21.889Z,-0.8
2023-01-18T01:35:21.542Z,-0.8
2023-01-18T01:40:21.456Z,-0.8
2023-01-18T01:45:21.394Z,-0.8
2023-01-18T01:50:21.447Z,-0.9
2023-01-18T01:55:21.658Z,-0.9
2023-01-18T02:00:22.011Z,-0.9
2023-01-18T02:05:22.111Z,-0.9
2023-01-18T02:10:22.313Z,-1
2023-01-18T02:15:22.341Z,-1
2023-01-18T02:20:21.423Z,-1.1
2023-01-18T02:25:21.489Z,-1.1
2023-01-18T02:30:21.472Z,-1.1
2023-01-18T02:35:21.444Z,-1.1
2023-01-18T02:40:21.356Z,-1.2
2023-01-18T02:45:21.494Z,-1.2
2023-01-18T02:50:21.639Z,-1.2
2023-01-18T02:55:21.695Z,-1.2
2023-01-18T03:00:21.408Z,-1.3
2023-01-18T03:05:21.792Z,-1.3
2023-01-18T03:10:22.383Z,-1.3
2023-01-18T03:15:21.722Z,-1.3
2023-01-18T03:20:23.737Z,-1.3
2023-01-18T03:25:21.544Z,-1.3
2023-01-18T03:30:22.264Z,-1.4
2023-01-18T03:35:21.350Z,-1.4
2023-01-18T03:40:21.598Z,-1.4
2023-01-18T03:45:22.085Z,-1.4
2023-01-18T03:50:21.781Z,-1.5
2023-01-18T03:55:21.544Z,-1.5
2023-01-18T04:00:21.713Z,-1.6
2023-01-18T04:05:22.236Z,-1.6
2023-01-18T04:10:22.265Z,-1.7
2023-01-18T04:15:21.523Z,-1.7
2023-01-18T04:20:22.310Z,-1.7
2023-01-18T04:25:22.364Z,-1.7
2023-01-18T04:30:22.228Z,-1.9
2023-01-18T04:35:21.647Z,-1.9
2023-01-18T04:40:21.719Z,-2
2023-01-18T04:45:21.815Z,-2
2023-01-18T04:50:21.764Z,-2.1
2023-01-18T04:55:21.704Z,-2.1
2023-01-18T05:00:21.642Z,-2.2
2023-01-18T05:05:21.607Z,-2.2
2023-01-18T05:10:22.167Z,-2.4
2023-01-18T05:15:21.626Z,-2.4
2023-01-18T05:20:21.630Z,-2.5
2023-01-18T05:25:21.735Z,-2.5
2023-01-18T05:30:22.452Z,-2.6
2023-01-18T05:35:21.796Z,-2.6
2023-01-18T05:40:21.889Z,-2.6
2023-01-18T05:45:22.002Z,-2.6
2023-01-18T05:50:22.364Z,-2.6
2023-01-18T05:55:22.112Z,-2.6
2023-01-18T06:00:22.423Z,-2.6
2023-01-18T06:05:21.506Z,-2.6
2023-01-18T06:10:21.515Z,-2.6
2023-01-18T06:15:21.526Z,-2.6
2023-01-18T06:20:21.567Z,-2.6
2023-01-18T06:25:21.691Z,-2.6
2023-01-18T06:30:21.816Z,-2.6
2023-01-18T06:35:22.108Z,-2.6
2023-01-18T06:40:22.192Z,-2.6
2023-01-18T06:45:22.154Z,-2.6
2023-01-18T06:50:22.260Z,-2.6
2023-01-18T06:55:22.386Z,-2.6
2023-01-18T07:00:22.397Z,-2.6
2023-01-18T07:05:21.876Z,-2.6
2023-01-18T07:10:21.723Z,-2.7
2023-01-18T07:15:23.012Z,-2.7
2023-01-18T07:20:22.331Z,-2.8
2023-01-18T07:25:21.565Z,-2.8
2023-01-18T07:30:22.007Z,-2.9
2023-01-18T07:35:21.504Z,-2.9
2023-01-18T07:40:22.009Z,-3.1
2023-01-18T07:45:22.505Z,-3.1
2023-01-18T07:50:22.236Z,-3.2
2023-01-18T07:55:22.229Z,-3.2
2023-01-18T08:00:22.117Z,-3.2
2023-01-18T08:05:22.266Z,-3.2
2023-01-18T08:10:22.107Z,-3.2
2023-01-18T08:15:22.497Z,-3.2
2023-01-18T08:20:22.716Z,-3.2
2023-01-18T08:25:22.396Z,-3.2
2023-01-18T08:30:22.462Z,-3.1
2023-01-18T08:35:23.745Z,-3.1
2023-01-18T08:40:21.939Z,-2.9
2023-01-18T08:45:21.866Z,-2.9
2023-01-18T08:50:22.194Z,-2.7
2023-01-18T08:55:22.299Z,-2.7
2023-01-18T09:00:22.538Z,-2.6
2023-01-18T09:05:21.572Z,-2.6
2023-01-18T09:10:21.584Z,-2.3
2023-01-18T09:15:21.925Z,-2.3
2023-01-18T09:20:21.933Z,-2
2023-01-18T09:25:21.795Z,-2
2023-01-18T09:30:22.098Z,-1.7
2023-01-18T09:35:22.121Z,-1.7
2023-01-18T09:40:21.738Z,-1.3
2023-01-18T09:45:22.576Z,-1.3
2023-01-18T09:50:22.323Z,-1
2023-01-18T09:55:21.980Z,-1
2023-01-18T10:00:21.708Z,-0.8
2023-01-18T10:05:22.059Z,-0.8
2023-01-18T10:10:21.702Z,-0.6
2023-01-18T10:15:22.407Z,-0.6
2023-01-18T10:20:21.912Z,-0.5
2023-01-18T10:25:21.919Z,-0.5
2023-01-18T10:30:22.436Z,-0.2
2023-01-18T10:35:22.195Z,-0.2
2023-01-18T10:40:21.862Z,-0.1
2023-01-18T10:45:22.110Z,-0.1
2023-01-18T10:50:22.223Z,0.2
2023-01-18T10:55:21.938Z,0.2
2023-01-18T11:00:22.629Z,0.3
2023-01-18T11:05:22.078Z,0.3
2023-01-18T11:10:22.326Z,0.5
2023-01-18T11:15:22.247Z,0.5
2023-01-18T11:20:21.771Z,0.7
2023-01-18T11:25:21.810Z,0.7
2023-01-18T11:30:21.944Z,0.9
2023-01-18T11:35:22.055Z,0.9
2023-01-18T11:40:22.277Z,1.1
2023-01-18T11:45:22.634Z,1.1
2023-01-18T11:50:22.729Z,1.2
2023-01-18T11:55:21.949Z,1.2
2023-01-18T12:00:21.796Z,1.3
2023-01-18T12:05:22.457Z,1.3
2023-01-18T12:10:22.237Z,1.4
2023-01-18T12:15:22.367Z,1.4
2023-01-18T12:20:22.288Z,1.6
2023-01-18T12:25:22.343Z,1.6
2023-01-18T12:30:22.386Z,1.6
2023-01-18T12:35:24.059Z,1.6
2023-01-18T12:40:22.122Z,1.6
2023-01-18T12:45:22.312Z,1.6
2023-01-18T12:50:23.175Z,1.7
2023-01-18T12:55:22.414Z,1.7
2023-01-18T13:00:22.568Z,1.9
2023-01-18T13:05:21.877Z,1.9
2023-01-18T13:10:21.999Z,2.2
2023-01-18T13:15:21.954Z,2.2
2023-01-18T13:20:22.053Z,2.3
2023-01-18T13:25:23.570Z,2.3
2023-01-18T13:30:22.898Z,2.3
2023-01-18T13:35:24.362Z,2.3
2023-01-18T13:40:22.775Z,2.5
2023-01-18T13:45:21.849Z,2.5
2023-01-18T13:50:21.978Z,2.5
2023-01-18T13:55:22.241Z,2.5
2023-01-18T14:00:22.189Z,2.4
2023-01-18T14:05:25.175Z,2.4
2023-01-18T14:10:22.608Z,2.4
2023-01-18T14:15:22.555Z,2.4
2023-01-18T14:20:22.492Z,2.4
2023-01-18T14:25:22.316Z,2.4
2023-01-18T14:30:22.689Z,2.4
2023-01-18T14:35:25.459Z,2.4
2023-01-18T14:40:22.718Z,2.4
2023-01-18T14:45:22.220Z,2.4
2023-01-18T14:50:22.007Z,2.3
2023-01-18T14:55:22.240Z,2.3
2023-01-18T15:00:22.362Z,2.2
2023-01-18T15:05:22.265Z,2.2
2023-01-18T15:10:22.172Z,1.9
2023-01-18T15:15:22.589Z,1.9
2023-01-18T15:20:21.910Z,1.7
2023-01-18T15:25:21.931Z,1.7
2023-01-18T15:30:22.199Z,1.6
2023-01-18T15:35:21.959Z,1.6
2023-01-18T15:40:22.163Z,1.4
2023-01-18T15:45:22.152Z,1.4
2023-01-18T15:50:22.131Z,1.2
2023-01-18T15:55:22.478Z,1.2
2023-01-18T16:00:22.599Z,1
2023-01-18T16:05:22.342Z,1
2023-01-18T16:10:21.954Z,0.8
2023-01-18T16:15:22.028Z,0.8
2023-01-18T16:20:22.226Z,0.6
2023-01-18T16:25:22.248Z,0.6
2023-01-18T16:30:22.168Z,0.4
2023-01-18T16:35:22.257Z,0.4
2023-01-18T16:40:22.512Z,0.3
2023-01-18T16:45:22.611Z,0.3
2023-01-18T16:50:22.622Z,0.1
2023-01-18T16:55:22.568Z,0.1
2023-01-18T17:00:22.439Z,0
2023-01-18T17:05:22.502Z,0
2023-01-18T17:10:22.551Z,-0.2
2023-01-18T17:15:22.498Z,-0.2
2023-01-18T17:20:22.623Z,-0.2
2023-01-18T17:25:22.571Z,-0.2
2023-01-18T17:30:22.431Z,-0.3
2023-01-18T17:35:22.392Z,-0.3
2023-01-18T17:40:30.992Z,-0.3
2023-01-18T17:45:22.537Z,-0.3
2023-01-18T17:50:22.407Z,-0.4
2023-01-18T17:55:27.461Z,-0.4
2023-01-18T18:00:22.633Z,-0.4
2023-01-18T18:05:22.660Z,-0.4
2023-01-18T18:10:22.563Z,-0.4
2023-01-18T18:15:22.657Z,-0.4
2023-01-18T18:20:23.023Z,-0.4
2023-01-18T18:25:22.795Z,-0.4
2023-01-18T18:30:22.051Z,-0.4
2023-01-18T18:35:25.922Z,-0.4
2023-01-18T18:40:22.246Z,-0.4
2023-01-18T18:45:22.216Z,-0.4
2023-01-18T18:50:22.349Z,-0.4
2023-01-18T18:55:22.301Z,-0.4
2023-01-18T19:00:22.335Z,-0.4
2023-01-18T19:05:22.242Z,-0.4
2023-01-18T19:10:22.167Z,-0.4
2023-01-18T19:15:22.549Z,-0.4
2023-01-18T19:20:22.429Z,-0.4
2023-01-18T19:25:22.469Z,-0.4
2023-01-18T19:30:22.615Z,-0.4
2023-01-18T19:35:22.578Z,-0.4
2023-01-18T19:40:22.513Z,-0.5
2023-01-18T19:45:27.873Z,-0.5
2023-01-18T19:50:22.594Z,-0.4
2023-01-18T19:55:22.575Z,-0.4
2023-01-18T20:00:22.543Z,-0.4
2023-01-18T20:05:22.532Z,-0.4
2023-01-18T20:10:22.565Z,-0.4
2023-01-18T20:15:22.511Z,-0.4
2023-01-18T20:20:31.871Z,-0.4
2023-01-18T20:25:22.669Z,-0.4
2023-01-18T20:30:22.581Z,-0.4
2023-01-18T20:35:22.250Z,-0.4
2023-01-18T20:40:22.157Z,-0.4
2023-01-18T20:45:22.040Z,-0.4
2023-01-18T20:50:22.919Z,-0.4
2023-01-18T20:55:22.561Z,-0.4
2023-01-18T21:00:22.623Z,-0.4
2023-01-18T21:05:22.125Z,-0.4
2023-01-18T21:10:22.779Z,-0.4
2023-01-18T21:15:22.781Z,-0.4
2023-01-18T21:20:22.494Z,-0.4
2023-01-18T21:25:22.552Z,-0.4
2023-01-18T21:30:22.533Z,-0.4
2023-01-18T21:35:22.184Z,-0.4
2023-01-18T21:40:22.293Z,-0.4
2023-01-18T21:45:22.257Z,-0.4
2023-01-18T21:50:22.148Z,-0.4
2023-01-18T21:55:22.191Z,-0.4
2023-01-18T22:00:22.865Z,-0.3
2023-01-18T22:05:22.225Z,-0.3
2023-01-18T22:10:22.598Z,-0.3
2023-01-18T22:15:22.448Z,-0.3
2023-01-18T22:20:22.510Z,-0.2
2023-01-18T22:25:22.503Z,-0.2
2023-01-18T22:30:22.591Z,-0.1
2023-01-18T22:35:22.528Z,-0.1
2023-01-18T22:40:22.611Z,0
2023-01-18T22:45:22.615Z,0
2023-01-18T22:50:22.942Z,0
2023-01-18T22:55:22.277Z,0
2023-01-18T23:00:22.255Z,0
2023-01-18T23:05:22.897Z,0
2023-01-18T23:10:22.891Z,0
2023-01-18T23:15:22.836Z,0
2023-01-18T23:20:22.163Z,0.1
2023-01-18T23:25:22.300Z,0.1
2023-01-18T23:30:22.213Z,0.2
2023-01-18T23:35:22.718Z,0.2
2023-01-18T23:40:22.820Z,0.3
2023-01-18T23:45:22.823Z,0.3
2023-01-18T23:50:22.841Z,0.4
2023-01-18T23:55:22.209Z,0.4
